Morristown, NJ (07960)

8:38 PM EDT on August 29, 2015 (GMT -0400)
Wheatsheaf | | Change Station
CLOSE
Current Station
Personal Weather Station
Location: Morristown Township, NJ
Elevation: 406 ft
Nearby Weather Stations

Elev 406 ft 40.81 °N, 74.50 °W | Updated 5 minutes ago

Partly Cloudy
Partly Cloudy
72.5 °F
Feels Like 74 °F
N
0.0
Wind Variable Wind from WNW
Gusts 0.0 mph

Today
High -- | Low -- °F
--% Chance of Precip.
Yesterday
High -- | Low -- °F
Precip. -- in
6:21 AM 7:35 PM
Full, 100% visible
Pressure 30.10 in
Visibility 10.0 miles
Clouds Mostly Cloudy 25000 ft
Heat Index 74 °F
Dew Point 64 °F
Humidity 74%
Rainfall 0.00 in
Snow Depth Not available.
UV 0 out of 12
Pollen 10.00 out of 12
Air Quality Not available.
Flu Activity Not available.
METAR KMMU 292345Z 27006KT 10SM BKN250 26/14 A3010
Pressure 30.10 in
Visibility 10.0 miles
Clouds Mostly Cloudy 25000 ft
Heat Index 74 °F
Dew Point 64 °F
Humidity 74%
Rainfall 0.00 in
Snow Depth Not available.
UV 0 out of 12
Pollen 10.00 out of 12
Air Quality Not available.
Flu Activity Not available.
METAR KMMU 292345Z 27006KT 10SM BKN250 26/14 A3010

10-Day Weather Forecast

×

Almanac

Astronomy

Aug. 29, 2015 Rise Set
Actual Time
Civil Twilight
Nautical Twilight
Astronomical Twilight
Moon
Length of Visible Light
Length of Day
Tomorrow will be .
, % of the Moon is Illuminated

Today's Extremes

State Highs State Lows

Community

WunderPhotos

Upload Photos

1,850,807 photos uploaded!

WunderBlogs® & News

Nearby

Air Quality

  Air Quality AQ Index Pollutant
Not available.

Snow Depth

Station Depth Elevation

Earthquake Activity

City Distance Mag. Time & Date
Minimum magnitude displayed is 2.5.

Coastal Water Temperatures

Place Temperature

Stations

Nearby Weather Stations

Station Location Temp. Windchill Dew Point Humidity Wind Precip. Elev Updated Type